createdAt,value
2022-10-06T00:00:18.744Z,95.34
2022-10-06T00:01:18.757Z,95.54
2022-10-06T00:02:18.759Z,96.04
2022-10-06T00:03:18.726Z,96.25
2022-10-06T00:04:18.622Z,95.74
2022-10-06T00:05:18.584Z,95.74
2022-10-06T00:06:18.568Z,96.25
2022-10-06T00:07:18.531Z,96.39
2022-10-06T00:08:18.500Z,96.45
2022-10-06T00:09:18.549Z,96.45
2022-10-06T00:10:18.459Z,96.39
2022-10-06T00:11:18.392Z,96.19
2022-10-06T00:12:18.365Z,97.00
2022-10-06T00:13:18.332Z,96.86
2022-10-06T00:14:18.324Z,96.66
2022-10-06T00:15:18.340Z,96.80
2022-10-06T00:16:18.352Z,96.60
2022-10-06T00:17:18.240Z,96.60
2022-10-06T00:18:18.281Z,96.70
2022-10-06T00:19:18.162Z,96.70
2022-10-06T00:20:18.122Z,96.90
2022-10-06T00:21:18.099Z,96.90
2022-10-06T00:22:18.123Z,97.31
2022-10-06T00:23:18.045Z,97.31
2022-10-06T00:24:18.021Z,97.20
2022-10-06T00:25:18.007Z,97.41
2022-10-06T00:26:17.926Z,97.00
2022-10-06T00:27:17.895Z,97.20
2022-10-06T00:28:17.933Z,97.06
2022-10-06T00:29:17.843Z,97.00
2022-10-06T00:30:17.888Z,96.90
2022-10-06T00:31:17.904Z,96.66
2022-10-06T00:32:17.753Z,96.96
2022-10-06T00:33:17.719Z,96.86
2022-10-06T00:34:17.681Z,96.55
2022-10-06T00:35:18.325Z,96.96
2022-10-06T00:36:17.618Z,96.66
2022-10-06T00:37:17.582Z,96.96
2022-10-06T00:38:17.552Z,96.10
2022-10-06T00:39:17.593Z,96.10
2022-10-06T00:40:17.543Z,95.70
2022-10-06T00:41:17.466Z,96.00
2022-10-06T00:42:17.432Z,95.59
2022-10-06T00:43:17.412Z,95.50
2022-10-06T00:44:17.371Z,95.19
2022-10-06T00:45:17.428Z,95.65
2022-10-06T00:46:17.424Z,94.84
2022-10-06T00:47:17.280Z,95.04
2022-10-06T00:48:17.244Z,95.14
2022-10-06T00:49:17.262Z,95.25
2022-10-06T00:50:17.194Z,94.64
2022-10-06T00:51:17.149Z,94.39
2022-10-06T00:52:17.182Z,94.19
2022-10-06T00:53:17.111Z,94.59
2022-10-06T00:54:17.062Z,93.99
2022-10-06T00:55:17.055Z,93.78
2022-10-06T00:56:16.996Z,93.27
2022-10-06T00:57:17.031Z,93.78
2022-10-06T00:58:16.952Z,93.38
2022-10-06T00:59:16.914Z,93.74
2022-10-06T01:00:16.885Z,93.74
2022-10-06T01:01:16.912Z,93.88
2022-10-06T01:02:16.912Z,93.54
2022-10-06T01:03:16.779Z,93.33
2022-10-06T01:04:16.763Z,93.84
2022-10-06T01:05:16.733Z,92.93
2022-10-06T01:06:16.816Z,93.43
2022-10-06T01:07:16.714Z,93.43
2022-10-06T01:08:16.645Z,93.54
2022-10-06T01:09:16.604Z,94.04
2022-10-06T01:10:16.582Z,93.99
2022-10-06T01:11:16.542Z,93.84
2022-10-06T01:12:16.575Z,93.84
2022-10-06T01:13:16.496Z,93.63
2022-10-06T01:14:16.456Z,93.94
2022-10-06T01:15:16.419Z,93.94
2022-10-06T01:16:16.489Z,93.54
2022-10-06T01:17:16.409Z,92.83
2022-10-06T01:18:16.361Z,93.23
2022-10-06T01:19:16.304Z,92.88
2022-10-06T01:20:16.273Z,92.99
2022-10-06T01:21:16.244Z,92.79
2022-10-06T01:22:16.269Z,92.68
2022-10-06T01:23:16.175Z,92.48
2022-10-06T01:24:16.162Z,92.88
2022-10-06T01:25:16.115Z,92.58
2022-10-06T01:26:16.078Z,92.38
2022-10-06T01:27:16.069Z,92.13
2022-10-06T01:28:16.141Z,91.93
2022-10-06T01:29:15.996Z,91.93
2022-10-06T01:30:15.961Z,92.03
2022-10-06T01:31:16.001Z,91.83
2022-10-06T01:32:15.902Z,91.73
2022-10-06T01:33:15.872Z,91.63
2022-10-06T01:34:15.911Z,91.63
2022-10-06T01:35:15.815Z,91.73
2022-10-06T01:36:15.787Z,92.08
2022-10-06T01:37:15.752Z,92.28
2022-10-06T01:38:15.733Z,92.48
2022-10-06T01:39:15.713Z,92.28
2022-10-06T01:40:15.744Z,92.58
2022-10-06T01:41:15.652Z,92.88
2022-10-06T01:42:15.725Z,93.03
2022-10-06T01:43:15.565Z,92.83
2022-10-06T01:44:15.538Z,93.74
2022-10-06T01:45:15.504Z,93.54
2022-10-06T01:46:15.569Z,93.63
2022-10-06T01:47:15.465Z,93.33
2022-10-06T01:48:15.420Z,93.88
2022-10-06T01:49:15.393Z,94.49
2022-10-06T01:50:15.360Z,94.29
2022-10-06T01:51:15.327Z,94.09
2022-10-06T01:52:15.373Z,94.59
2022-10-06T01:53:15.302Z,94.19
2022-10-06T01:54:15.235Z,94.29
2022-10-06T01:55:15.208Z,95.30
2022-10-06T01:56:15.238Z,95.40
2022-10-06T01:57:15.152Z,95.14
2022-10-06T01:58:15.171Z,94.79
2022-10-06T01:59:15.087Z,95.04
2022-10-06T02:00:15.135Z,95.25
2022-10-06T02:01:15.074Z,95.95
2022-10-06T02:02:15.096Z,96.06
2022-10-06T02:03:14.976Z,96.06
2022-10-06T02:04:14.987Z,96.15
2022-10-06T02:05:14.925Z,96.20
2022-10-06T02:06:14.970Z,96.77
2022-10-06T02:07:14.840Z,96.81
2022-10-06T02:08:14.875Z,96.61
2022-10-06T02:09:14.792Z,96.71
2022-10-06T02:10:14.761Z,96.91
2022-10-06T02:11:14.726Z,96.71
2022-10-06T02:12:14.733Z,97.02
2022-10-06T02:13:15.377Z,96.91
2022-10-06T02:14:14.695Z,97.11
2022-10-06T02:15:14.599Z,97.92
2022-10-06T02:16:14.615Z,97.92
2022-10-06T02:17:14.545Z,97.72
2022-10-06T02:18:14.512Z,98.13
2022-10-06T02:19:14.474Z,97.72
2022-10-06T02:20:14.496Z,97.83
2022-10-06T02:21:14.514Z,97.92
2022-10-06T02:22:14.464Z,97.42
2022-10-06T02:23:14.347Z,97.88
2022-10-06T02:24:14.313Z,97.17
2022-10-06T02:25:14.285Z,96.56
2022-10-06T02:26:14.340Z,96.77
2022-10-06T02:27:14.220Z,96.81
2022-10-06T02:28:14.303Z,97.02
2022-10-06T02:29:14.163Z,97.32
2022-10-06T02:30:14.131Z,97.07
2022-10-06T02:31:14.237Z,97.11
2022-10-06T02:32:14.067Z,97.52
2022-10-06T02:33:14.032Z,97.52
2022-10-06T02:34:14.015Z,97.92
2022-10-06T02:35:13.984Z,97.92
2022-10-06T02:36:13.957Z,97.62
2022-10-06T02:37:13.968Z,97.62
2022-10-06T02:38:14.021Z,97.62
2022-10-06T02:39:13.858Z,97.83
2022-10-06T02:40:13.843Z,97.52
2022-10-06T02:41:13.798Z,98.13
2022-10-06T02:42:13.760Z,98.13
2022-10-06T02:43:13.764Z,97.62
2022-10-06T02:44:13.751Z,97.62
2022-10-06T02:45:13.729Z,97.83
2022-10-06T02:46:13.723Z,97.78
2022-10-06T02:47:13.609Z,97.38
2022-10-06T02:48:13.591Z,97.88
2022-10-06T02:49:13.562Z,97.17
2022-10-06T02:50:13.577Z,97.07
2022-10-06T02:51:13.487Z,96.56
2022-10-06T02:52:13.476Z,96.77
2022-10-06T02:53:13.435Z,96.72
2022-10-06T02:54:13.414Z,96.56
2022-10-06T02:55:13.421Z,96.51
2022-10-06T02:56:13.343Z,96.87
2022-10-06T02:57:13.304Z,96.51
2022-10-06T02:58:13.277Z,96.31
2022-10-06T02:59:13.238Z,96.31
2022-10-06T03:00:13.288Z,96.31
2022-10-06T03:01:13.182Z,96.22
2022-10-06T03:02:13.224Z,95.40
2022-10-06T03:03:13.112Z,95.81
2022-10-06T03:04:13.098Z,95.91
2022-10-06T03:05:13.060Z,95.36
2022-10-06T03:06:13.112Z,95.20
2022-10-06T03:07:18.748Z,94.75
2022-10-06T03:08:12.972Z,94.55
2022-10-06T03:09:12.937Z,95.15
2022-10-06T03:10:12.930Z,94.65
2022-10-06T03:11:12.881Z,94.40
2022-10-06T03:12:12.915Z,94.00
2022-10-06T03:13:12.813Z,94.40
2022-10-06T03:14:14.090Z,94.60
2022-10-06T03:15:12.755Z,94.20
2022-10-06T03:16:12.751Z,93.49
2022-10-06T03:17:12.686Z,93.90
2022-10-06T03:18:12.739Z,93.15
2022-10-06T03:19:12.633Z,93.65
2022-10-06T03:20:12.600Z,93.44
2022-10-06T03:21:12.575Z,93.44
2022-10-06T03:22:12.534Z,93.85
2022-10-06T03:23:13.682Z,92.94
2022-10-06T03:24:12.533Z,92.80
2022-10-06T03:25:12.443Z,92.80
2022-10-06T03:26:12.426Z,93.40
2022-10-06T03:27:12.385Z,93.60
2022-10-06T03:28:12.427Z,93.60
2022-10-06T03:29:12.343Z,93.51
2022-10-06T03:30:12.864Z,94.11
2022-10-06T03:31:12.291Z,94.82
2022-10-06T03:32:12.249Z,95.32
2022-10-06T03:33:12.257Z,96.03
2022-10-06T03:34:12.196Z,95.83
2022-10-06T03:35:12.150Z,96.34
2022-10-06T03:36:12.111Z,96.03
2022-10-06T03:37:12.080Z,96.84
2022-10-06T03:38:12.119Z,96.34
2022-10-06T03:39:12.016Z,96.03
2022-10-06T03:40:11.993Z,95.73
2022-10-06T03:41:11.959Z,95.73
2022-10-06T03:42:11.928Z,95.02
2022-10-06T03:43:11.899Z,94.92
2022-10-06T03:44:11.933Z,95.12
2022-10-06T03:45:11.838Z,95.53
2022-10-06T03:46:11.849Z,95.12
2022-10-06T03:47:16.837Z,96.03
2022-10-06T03:48:11.871Z,95.32
2022-10-06T03:49:11.713Z,95.02
2022-10-06T03:50:11.750Z,94.62
2022-10-06T03:51:11.654Z,95.22
2022-10-06T03:52:11.620Z,94.92
2022-10-06T03:53:11.592Z,95.12
2022-10-06T03:54:11.560Z,94.42
2022-10-06T03:55:11.631Z,93.71
2022-10-06T03:56:11.567Z,93.75
2022-10-06T03:57:11.646Z,93.71
2022-10-06T03:58:11.445Z,93.75
2022-10-06T03:59:11.414Z,94.01
2022-10-06T04:00:11.383Z,93.55
2022-10-06T04:01:11.459Z,92.84
2022-10-06T04:02:11.475Z,92.74
2022-10-06T04:03:11.289Z,93.04
2022-10-06T04:04:11.261Z,92.84
2022-10-06T04:05:11.231Z,92.54
2022-10-06T04:06:11.200Z,92.94
2022-10-06T04:07:11.169Z,92.74
2022-10-06T04:08:11.234Z,92.54
2022-10-06T04:09:14.980Z,92.13
2022-10-06T04:10:11.079Z,90.31
2022-10-06T04:11:11.047Z,91.22
2022-10-06T04:12:11.022Z,91.42
2022-10-06T04:13:10.989Z,90.52
2022-10-06T04:14:11.010Z,90.92
2022-10-06T04:15:10.996Z,90.52
2022-10-06T04:16:10.922Z,90.41
2022-10-06T04:17:10.873Z,90.31
2022-10-06T04:18:10.834Z,90.52
2022-10-06T04:19:10.807Z,90.72
2022-10-06T04:20:10.786Z,90.05
2022-10-06T04:21:10.794Z,89.70
2022-10-06T04:22:10.714Z,89.14
2022-10-06T04:23:10.696Z,89.24
2022-10-06T04:24:10.660Z,88.74
2022-10-06T04:25:10.721Z,87.82
2022-10-06T04:26:10.599Z,87.73
2022-10-06T04:27:10.564Z,86.91
2022-10-06T04:28:10.604Z,87.02
2022-10-06T04:29:10.507Z,87.12
2022-10-06T04:30:10.521Z,87.42
2022-10-06T04:31:10.548Z,86.91
2022-10-06T04:32:10.419Z,87.32
2022-10-06T04:33:10.389Z,87.16
2022-10-06T04:34:10.360Z,87.32
2022-10-06T04:35:10.323Z,88.88
2022-10-06T04:36:10.291Z,87.36
2022-10-06T04:37:10.322Z,87.16
2022-10-06T04:38:10.238Z,87.82
2022-10-06T04:39:10.213Z,87.97
2022-10-06T04:40:10.175Z,87.93
2022-10-06T04:41:10.162Z,86.41
2022-10-06T04:42:10.119Z,86.91
2022-10-06T04:43:10.451Z,87.82
2022-10-06T04:44:10.044Z,86.51
2022-10-06T04:45:10.023Z,86.76
2022-10-06T04:46:37.677Z,86.71
2022-10-06T04:47:09.959Z,86.45
2022-10-06T04:48:10.293Z,87.26
2022-10-06T04:49:13.394Z,86.76
2022-10-06T04:50:09.867Z,87.66
2022-10-06T04:51:09.835Z,87.05
2022-10-06T04:52:09.808Z,87.87
2022-10-06T04:53:09.777Z,87.16
2022-10-06T04:54:09.749Z,87.36
2022-10-06T04:55:09.790Z,86.49
2022-10-06T04:56:09.777Z,87.77
2022-10-06T04:57:09.650Z,86.85
2022-10-06T04:58:09.624Z,86.65
2022-10-06T04:59:09.592Z,86.69
2022-10-06T05:00:14.038Z,86.49
2022-10-06T05:01:09.659Z,87.56
2022-10-06T05:02:09.575Z,86.35
2022-10-06T05:03:09.472Z,86.15
2022-10-06T05:04:09.450Z,86.35
2022-10-06T05:05:09.409Z,85.68
2022-10-06T05:06:10.282Z,86.19
2022-10-06T05:07:09.353Z,85.88
2022-10-06T05:08:09.320Z,85.88
2022-10-06T05:09:09.343Z,85.58
2022-10-06T05:10:09.261Z,86.19
2022-10-06T05:11:12.556Z,85.99
2022-10-06T05:12:09.195Z,85.58
2022-10-06T05:13:09.168Z,85.68
2022-10-06T05:14:09.136Z,85.99
2022-10-06T05:15:09.103Z,85.68
2022-10-06T05:16:09.127Z,85.78
2022-10-06T05:17:09.152Z,85.58
2022-10-06T05:18:09.018Z,85.78
2022-10-06T05:19:08.987Z,85.68
2022-10-06T05:20:08.951Z,85.42
2022-10-06T05:21:08.937Z,85.17
2022-10-06T05:22:08.892Z,85.48
2022-10-06T05:23:08.933Z,85.17
2022-10-06T05:24:08.828Z,85.93
2022-10-06T05:25:08.793Z,85.82
2022-10-06T05:26:08.774Z,85.52
2022-10-06T05:27:08.746Z,85.52
2022-10-06T05:28:08.802Z,85.42
2022-10-06T05:29:08.684Z,85.21
2022-10-06T05:30:08.647Z,85.11
2022-10-06T05:31:08.676Z,85.72
2022-10-06T05:32:08.630Z,85.01
2022-10-06T05:33:08.680Z,85.62
2022-10-06T05:34:08.528Z,85.31
2022-10-06T05:35:08.501Z,85.62
2022-10-06T05:36:08.458Z,85.93
2022-10-06T05:37:08.429Z,86.07
2022-10-06T05:38:08.449Z,85.76
2022-10-06T05:39:08.368Z,85.66
2022-10-06T05:40:08.338Z,85.86
2022-10-06T05:41:08.317Z,86.47
2022-10-06T05:42:08.283Z,86.82
2022-10-06T05:43:08.296Z,86.41
2022-10-06T05:44:08.218Z,86.61
2022-10-06T05:45:08.181Z,87.12
2022-10-06T05:46:08.215Z,87.32
2022-10-06T05:47:08.149Z,87.16
2022-10-06T05:48:08.166Z,87.77
2022-10-06T05:49:08.061Z,87.67
2022-10-06T05:50:08.030Z,87.37
2022-10-06T05:51:08.008Z,87.46
2022-10-06T05:52:07.969Z,88.07
2022-10-06T05:53:07.938Z,88.28
2022-10-06T05:54:07.963Z,88.18
2022-10-06T05:55:07.878Z,88.32
2022-10-06T05:56:07.843Z,88.73
2022-10-06T05:57:07.812Z,89.13
2022-10-06T05:58:07.785Z,89.03
2022-10-06T05:59:07.749Z,89.13
2022-10-06T06:00:07.771Z,89.23
2022-10-06T06:01:07.695Z,89.48
2022-10-06T06:02:07.780Z,89.78
2022-10-06T06:03:07.634Z,89.48
2022-10-06T06:04:07.602Z,89.78
2022-10-06T06:05:07.623Z,90.33
2022-10-06T06:06:07.544Z,90.44
2022-10-06T06:07:07.526Z,90.74
2022-10-06T06:08:07.470Z,90.84
2022-10-06T06:09:07.437Z,90.44
2022-10-06T06:10:07.485Z,91.05
2022-10-06T06:11:07.381Z,91.25
2022-10-06T06:12:07.365Z,90.74
2022-10-06T06:13:07.325Z,91.05
2022-10-06T06:14:07.284Z,91.25
2022-10-06T06:15:07.255Z,90.94
2022-10-06T06:16:07.272Z,91.35
2022-10-06T06:17:07.192Z,91.35
2022-10-06T06:18:07.159Z,91.00
2022-10-06T06:19:07.126Z,91.25
2022-10-06T06:20:07.097Z,91.20
2022-10-06T06:21:07.174Z,90.70
2022-10-06T06:22:07.030Z,91.14
2022-10-06T06:23:07.004Z,90.80
2022-10-06T06:24:06.971Z,91.00
2022-10-06T06:25:06.936Z,91.20
2022-10-06T06:26:06.958Z,91.41
2022-10-06T06:27:06.873Z,91.20
2022-10-06T06:28:06.867Z,91.06
2022-10-06T06:29:06.826Z,91.06
2022-10-06T06:30:06.781Z,91.26
2022-10-06T06:31:06.860Z,91.36
2022-10-06T06:32:06.715Z,91.02
2022-10-06T06:33:06.682Z,90.31
2022-10-06T06:34:06.817Z,90.92
2022-10-06T06:35:06.623Z,90.71
2022-10-06T06:36:06.591Z,90.51
2022-10-06T06:37:10.445Z,90.36
2022-10-06T06:38:06.580Z,90.26
2022-10-06T06:39:06.505Z,90.06
2022-10-06T06:40:06.471Z,90.02
2022-10-06T06:41:06.441Z,89.72
2022-10-06T06:42:06.461Z,90.02
2022-10-06T06:43:06.375Z,89.51
2022-10-06T06:44:06.343Z,90.02
2022-10-06T06:45:06.316Z,89.31
2022-10-06T06:46:06.310Z,89.11
2022-10-06T06:47:06.303Z,89.04
2022-10-06T06:48:06.263Z,89.01
2022-10-06T06:49:06.197Z,89.21
2022-10-06T06:50:06.229Z,89.41
2022-10-06T06:51:06.204Z,89.41
2022-10-06T06:52:06.191Z,89.31
2022-10-06T06:53:06.065Z,89.31
2022-10-06T06:54:06.057Z,89.51
2022-10-06T06:55:06.005Z,90.16
2022-10-06T06:56:05.974Z,90.36
2022-10-06T06:57:05.990Z,90.47
2022-10-06T06:58:05.914Z,90.16
2022-10-06T06:59:05.875Z,90.77
2022-10-06T07:00:05.847Z,90.26
2022-10-06T07:01:05.887Z,90.77
2022-10-06T07:02:05.822Z,90.97
2022-10-06T07:03:05.839Z,90.88
2022-10-06T07:04:05.727Z,90.97
2022-10-06T07:05:05.691Z,90.88
2022-10-06T07:06:05.736Z,90.06
2022-10-06T07:07:05.628Z,90.36
2022-10-06T07:08:05.598Z,90.97
2022-10-06T07:09:05.633Z,90.26
2022-10-06T07:10:05.543Z,90.67
2022-10-06T07:11:05.511Z,90.97
2022-10-06T07:12:05.474Z,90.36
2022-10-06T07:13:05.451Z,90.57
2022-10-06T07:14:05.420Z,90.16
2022-10-06T07:15:05.448Z,90.77
2022-10-06T07:16:05.445Z,90.67
2022-10-06T07:17:05.321Z,90.16
2022-10-06T07:18:05.305Z,90.36
2022-10-06T07:19:05.262Z,90.67
2022-10-06T07:20:05.234Z,90.16
2022-10-06T07:21:05.263Z,90.06
2022-10-06T07:22:05.172Z,89.25
2022-10-06T07:23:05.136Z,89.25
2022-10-06T07:24:05.114Z,89.21
2022-10-06T07:25:05.076Z,89.51
2022-10-06T07:26:05.046Z,88.90
2022-10-06T07:27:05.073Z,88.20
2022-10-06T07:28:05.044Z,87.14
2022-10-06T07:29:04.945Z,87.60
2022-10-06T07:30:04.938Z,86.19
2022-10-06T07:31:04.969Z,86.39
2022-10-06T07:32:05.323Z,86.08
2022-10-06T07:33:04.873Z,85.78
2022-10-06T07:34:04.792Z,85.38
2022-10-06T07:35:04.757Z,85.58
2022-10-06T07:36:04.737Z,84.87
2022-10-06T07:37:06.504Z,85.17
2022-10-06T07:38:04.718Z,83.65
2022-10-06T07:39:04.641Z,84.06
2022-10-06T07:40:04.715Z,83.86
2022-10-06T07:41:19.013Z,84.06
2022-10-06T07:42:04.551Z,83.76
2022-10-06T07:43:04.516Z,84.06
2022-10-06T07:44:07.841Z,83.65
2022-10-06T07:45:04.450Z,83.76
2022-10-06T07:46:04.526Z,83.45
2022-10-06T07:47:04.395Z,83.35
2022-10-06T07:48:04.366Z,82.44
2022-10-06T07:49:04.330Z,82.03
2022-10-06T07:50:04.351Z,81.93
2022-10-06T07:51:04.329Z,81.52
2022-10-06T07:52:04.284Z,81.93
2022-10-06T07:53:04.214Z,81.93
2022-10-06T07:54:04.173Z,81.93
2022-10-06T07:55:04.149Z,81.83
2022-10-06T07:56:04.177Z,81.73
2022-10-06T07:57:04.082Z,81.63
2022-10-06T07:58:04.060Z,81.43
2022-10-06T07:59:04.022Z,80.62
2022-10-06T08:00:04.016Z,80.41
2022-10-06T08:01:03.962Z,79.50
2022-10-06T08:02:04.015Z,80.11
2022-10-06T08:03:03.941Z,80.11
2022-10-06T08:04:03.912Z,79.30
2022-10-06T08:05:03.838Z,78.83
2022-10-06T08:06:03.809Z,78.28
2022-10-06T08:07:03.775Z,78.33
2022-10-06T08:08:03.745Z,77.92
2022-10-06T08:09:03.777Z,77.78
2022-10-06T08:10:03.689Z,78.02
2022-10-06T08:11:03.649Z,77.78
2022-10-06T08:12:03.616Z,77.21
2022-10-06T08:13:03.583Z,77.28
2022-10-06T08:14:03.606Z,77.58
2022-10-06T08:15:07.000Z,77.28
2022-10-06T08:16:03.544Z,77.98
2022-10-06T08:17:03.465Z,77.98
2022-10-06T08:18:12.250Z,77.78
2022-10-06T08:19:03.450Z,78.08
2022-10-06T08:20:03.368Z,77.95
2022-10-06T08:21:03.339Z,77.17
2022-10-06T08:22:04.950Z,77.28
2022-10-06T08:23:03.304Z,77.44
2022-10-06T08:24:03.327Z,77.44
2022-10-06T08:25:07.124Z,77.34
2022-10-06T08:26:03.188Z,76.12
2022-10-06T08:27:03.153Z,75.18
2022-10-06T08:28:03.135Z,75.21
2022-10-06T08:29:03.378Z,75.11
2022-10-06T08:30:03.123Z,75.21
2022-10-06T08:31:03.084Z,75.07
2022-10-06T08:32:03.002Z,74.98
2022-10-06T08:33:02.974Z,74.30
2022-10-06T08:34:02.933Z,74.40
2022-10-06T08:35:02.919Z,74.20
2022-10-06T08:36:02.932Z,74.16
2022-10-06T08:37:19.272Z,74.07
2022-10-06T08:38:02.818Z,73.96
2022-10-06T08:39:02.837Z,73.96
2022-10-06T08:40:02.766Z,74.27
2022-10-06T08:41:02.722Z,74.63
2022-10-06T08:42:02.690Z,73.93
2022-10-06T08:43:02.660Z,73.43
2022-10-06T08:44:02.693Z,73.43
2022-10-06T08:45:02.620Z,73.59
2022-10-06T08:46:02.573Z,73.28
2022-10-06T08:47:02.542Z,73.90
2022-10-06T08:48:02.576Z,73.99
2022-10-06T08:49:02.479Z,74.46
2022-10-06T08:50:02.493Z,73.66
2022-10-06T08:51:02.423Z,73.96
2022-10-06T08:52:02.387Z,73.72
2022-10-06T08:53:02.355Z,73.11
2022-10-06T08:54:02.325Z,73.11
2022-10-06T08:55:02.490Z,73.93
2022-10-06T08:56:02.277Z,74.13
2022-10-06T08:57:02.235Z,74.26
2022-10-06T08:58:02.254Z,74.97
2022-10-06T08:59:02.178Z,75.07
2022-10-06T09:00:02.144Z,75.21
2022-10-06T09:01:02.241Z,75.92
2022-10-06T09:02:02.130Z,76.22
2022-10-06T09:03:02.058Z,75.92
2022-10-06T09:04:02.027Z,75.51
2022-10-06T09:05:01.995Z,75.41
2022-10-06T09:06:01.965Z,75.92
2022-10-06T09:07:02.015Z,75.55
2022-10-06T09:08:01.903Z,75.51
2022-10-06T09:09:01.880Z,74.94
2022-10-06T09:10:01.842Z,75.24
2022-10-06T09:11:01.813Z,74.94
2022-10-06T09:12:01.783Z,75.04
2022-10-06T09:13:01.805Z,75.04
2022-10-06T09:14:01.720Z,74.84
2022-10-06T09:15:01.694Z,75.24
2022-10-06T09:16:01.695Z,75.24
2022-10-06T09:17:01.639Z,75.81
2022-10-06T09:18:01.620Z,75.21
2022-10-06T09:19:08.637Z,74.97
2022-10-06T09:20:01.556Z,75.17
2022-10-06T09:21:01.524Z,74.84
2022-10-06T09:22:01.490Z,76.45
2022-10-06T09:23:01.457Z,76.75
2022-10-06T09:24:01.490Z,75.04
2022-10-06T09:25:01.396Z,74.02
2022-10-06T09:26:01.362Z,75.04
2022-10-06T09:27:01.338Z,75.04
2022-10-06T09:28:01.384Z,75.04
2022-10-06T09:29:01.275Z,73.32
2022-10-06T09:30:01.305Z,72.91
2022-10-06T09:31:01.283Z,73.42
2022-10-06T09:32:01.187Z,73.72
2022-10-06T09:33:01.157Z,75.24
2022-10-06T09:34:01.126Z,74.87
2022-10-06T09:35:01.095Z,74.87
2022-10-06T09:36:01.068Z,74.26
2022-10-06T09:37:02.174Z,75.27
2022-10-06T09:38:04.462Z,74.26
2022-10-06T09:39:00.975Z,73.35
2022-10-06T09:40:00.961Z,74.16
2022-10-06T09:41:00.911Z,73.75
2022-10-06T09:42:00.922Z,73.25
2022-10-06T09:43:00.912Z,73.05
2022-10-06T09:44:00.819Z,73.55
2022-10-06T09:45:00.816Z,73.55
2022-10-06T09:46:00.778Z,73.55
2022-10-06T09:47:00.735Z,73.82
2022-10-06T09:48:00.706Z,73.32
2022-10-06T09:49:00.749Z,73.62
2022-10-06T09:50:00.647Z,73.52
2022-10-06T09:51:00.614Z,71.73
2022-10-06T09:52:00.612Z,73.02
2022-10-06T09:53:00.561Z,71.80
2022-10-06T09:54:00.523Z,72.00
2022-10-06T09:55:00.548Z,71.40
2022-10-06T09:56:00.463Z,71.84
2022-10-06T09:57:00.452Z,70.73
2022-10-06T09:58:00.410Z,70.19
2022-10-06T09:59:00.370Z,70.49
2022-10-06T10:00:00.440Z,70.42
2022-10-06T10:01:00.503Z,69.42
2022-10-06T10:02:00.428Z,69.01
2022-10-06T10:03:00.285Z,70.02
2022-10-06T10:04:28.393Z,69.82
2022-10-06T10:05:00.191Z,69.68
2022-10-06T10:06:00.563Z,70.29
2022-10-06T10:07:00.132Z,70.09
2022-10-06T10:08:00.104Z,70.09
2022-10-06T10:09:00.124Z,69.58
2022-10-06T10:10:00.043Z,69.28
2022-10-06T10:11:00.014Z,69.08
2022-10-06T10:12:00.071Z,69.95
2022-10-06T10:12:59.963Z,69.48
2022-10-06T10:14:00.341Z,70.39
2022-10-06T10:15:00.168Z,70.76
2022-10-06T10:15:59.915Z,71.26
2022-10-06T10:16:59.832Z,71.57
2022-10-06T10:17:59.805Z,69.95
2022-10-06T10:18:59.774Z,68.13
2022-10-06T10:20:00.092Z,68.24
2022-10-06T10:20:59.715Z,68.37
2022-10-06T10:21:59.699Z,68.47
2022-10-06T10:22:59.661Z,68.77
2022-10-06T10:23:59.627Z,69.55
2022-10-06T10:24:59.650Z,69.18
2022-10-06T10:25:59.561Z,68.67
2022-10-06T10:26:59.545Z,69.38
2022-10-06T10:27:59.585Z,69.78
2022-10-06T10:28:59.474Z,69.68
2022-10-06T10:29:59.731Z,69.98
2022-10-06T10:30:59.451Z,70.19
2022-10-06T10:32:01.874Z,69.48
2022-10-06T10:32:59.405Z,69.58
2022-10-06T10:34:11.931Z,68.98
2022-10-06T10:34:59.597Z,69.18
2022-10-06T10:35:59.262Z,69.55
2022-10-06T10:36:59.229Z,68.95
2022-10-06T10:37:59.205Z,69.11
2022-10-06T10:38:59.173Z,68.30
2022-10-06T10:39:59.207Z,68.81
2022-10-06T10:40:59.122Z,69.59
2022-10-06T10:41:59.082Z,68.57
2022-10-06T10:42:59.058Z,67.27
2022-10-06T10:44:03.374Z,67.77
2022-10-06T10:44:59.368Z,67.97
2022-10-06T10:45:58.964Z,67.54
2022-10-06T10:46:58.984Z,67.74
2022-10-06T10:47:58.904Z,67.33
2022-10-06T10:48:58.882Z,67.43
2022-10-06T10:49:59.072Z,67.03
2022-10-06T10:50:58.825Z,66.42
2022-10-06T10:51:58.783Z,66.83
2022-10-06T10:52:58.757Z,65.52
2022-10-06T10:53:58.733Z,66.53
2022-10-06T10:54:59.278Z,66.53
2022-10-06T10:55:58.726Z,66.73
2022-10-06T10:56:58.645Z,64.51
2022-10-06T10:57:58.676Z,64.95
2022-10-06T10:58:58.582Z,64.95
2022-10-06T10:59:58.556Z,65.55
2022-10-06T11:00:58.575Z,65.05
2022-10-06T11:01:58.592Z,65.55
2022-10-06T11:02:59.026Z,66.25
2022-10-06T11:03:58.505Z,66.16
2022-10-06T11:04:58.713Z,66.36
2022-10-06T11:05:58.382Z,66.46
2022-10-06T11:06:58.344Z,66.86
2022-10-06T11:07:58.318Z,66.05
2022-10-06T11:08:58.287Z,65.75
2022-10-06T11:09:58.312Z,66.66
2022-10-06T11:10:58.225Z,67.57
2022-10-06T11:11:58.197Z,67.10
2022-10-06T11:12:58.172Z,67.19
2022-10-06T11:13:58.188Z,66.39
2022-10-06T11:14:58.293Z,66.69
2022-10-06T11:15:58.186Z,66.39
2022-10-06T11:16:59.888Z,67.50
2022-10-06T11:17:58.017Z,66.89
2022-10-06T11:18:57.991Z,66.76
2022-10-06T11:19:58.023Z,67.16
2022-10-06T11:20:57.942Z,65.55
2022-10-06T11:21:57.900Z,65.75
2022-10-06T11:22:57.875Z,66.46
2022-10-06T11:23:57.839Z,66.76
2022-10-06T11:24:58.280Z,65.92
2022-10-06T11:25:57.843Z,66.22
2022-10-06T11:26:58.392Z,65.72
2022-10-06T11:27:57.745Z,67.23
2022-10-06T11:28:57.810Z,66.33
2022-10-06T11:29:57.862Z,65.72
2022-10-06T11:30:57.638Z,65.92
2022-10-06T11:31:57.716Z,65.22
2022-10-06T11:32:57.634Z,66.53
2022-10-06T11:33:57.562Z,65.39
2022-10-06T11:34:57.517Z,66.39
2022-10-06T11:35:57.493Z,64.89
2022-10-06T11:36:57.459Z,65.09
2022-10-06T11:37:57.480Z,64.98
2022-10-06T11:38:57.395Z,64.61
2022-10-06T11:39:57.695Z,64.89
2022-10-06T11:40:57.344Z,64.98
2022-10-06T11:41:57.310Z,65.29
2022-10-06T11:42:57.349Z,66.60
2022-10-06T11:43:57.253Z,64.86
2022-10-06T11:44:57.568Z,63.54
2022-10-06T11:45:57.278Z,64.65
2022-10-06T11:46:57.173Z,64.75
2022-10-06T11:47:57.145Z,64.48
2022-10-06T11:48:57.168Z,64.78
2022-10-06T11:49:57.086Z,65.49
2022-10-06T11:50:57.054Z,64.69
2022-10-06T11:51:59.603Z,64.48
2022-10-06T11:52:57.001Z,64.55
2022-10-06T11:53:57.018Z,62.87
2022-10-06T11:54:57.350Z,63.24
2022-10-06T11:55:56.903Z,62.26
2022-10-06T11:56:56.871Z,62.77
2022-10-06T11:57:56.861Z,63.10
2022-10-06T11:58:56.869Z,63.81
2022-10-06T11:59:56.787Z,63.10
2022-10-06T12:00:56.756Z,62.29
2022-10-06T12:01:56.892Z,63.00
2022-10-06T12:02:56.809Z,63.70
2022-10-06T12:03:56.743Z,62.90
2022-10-06T12:04:56.832Z,63.10
2022-10-06T12:05:57.385Z,64.69
2022-10-06T12:06:56.583Z,63.20
2022-10-06T12:07:56.557Z,63.90
2022-10-06T12:08:56.530Z,63.98
2022-10-06T12:09:56.548Z,62.57
2022-10-06T12:10:56.515Z,63.20
2022-10-06T12:11:56.445Z,62.97
2022-10-06T12:13:06.714Z,62.97
2022-10-06T12:17:11.415Z,63.23
2022-10-06T12:17:56.303Z,62.83
2022-10-06T12:18:56.236Z,63.20
2022-10-06T12:19:56.202Z,63.33
2022-10-06T12:20:56.292Z,63.90
2022-10-06T12:21:56.152Z,62.93
2022-10-06T12:22:56.119Z,64.04
2022-10-06T12:23:56.091Z,64.24
2022-10-06T12:24:56.377Z,64.04
2022-10-06T12:25:56.080Z,62.73
2022-10-06T12:26:55.995Z,64.14
2022-10-06T12:27:56.023Z,63.93
2022-10-06T12:28:55.946Z,63.03
2022-10-06T12:29:56.288Z,63.53
2022-10-06T12:30:56.962Z,64.64
2022-10-06T12:31:55.854Z,62.43
2022-10-06T12:32:55.851Z,63.13
2022-10-06T12:33:55.798Z,62.90
2022-10-06T12:34:56.011Z,62.49
2022-10-06T12:35:55.797Z,62.19
2022-10-06T12:36:55.707Z,62.46
2022-10-06T12:37:55.682Z,62.46
2022-10-06T12:38:55.656Z,62.16
2022-10-06T12:39:55.620Z,62.87
2022-10-06T12:40:55.796Z,61.05
2022-10-06T12:41:55.565Z,60.96
2022-10-06T12:42:55.550Z,61.76
2022-10-06T12:43:55.514Z,60.65
2022-10-06T12:44:55.816Z,60.75
2022-10-06T12:45:55.599Z,60.85
2022-10-06T12:46:55.416Z,62.06
2022-10-06T12:47:55.390Z,62.46
2022-10-06T12:48:55.360Z,62.19
2022-10-06T12:49:55.323Z,61.76
2022-10-06T12:50:55.298Z,61.89
2022-10-06T12:51:57.935Z,62.80
2022-10-06T12:52:55.247Z,61.99
2022-10-06T12:53:55.219Z,62.49
2022-10-06T12:54:55.428Z,62.80